sensor_id;sensor_type;location;lat;lon;timestamp;P1;durP1;ratioP1;P2;durP2;ratioP2
7191;SDS011;3637;51.494;11.958;2022-07-29T00:02:58;1.80;;;1.60;;
7191;SDS011;3637;51.494;11.958;2022-07-29T00:05:59;2.00;;;1.60;;
7191;SDS011;3637;51.494;11.958;2022-07-29T00:09:01;1.50;;;1.40;;
7191;SDS011;3637;51.494;11.958;2022-07-29T00:12:05;2.20;;;1.70;;
7191;SDS011;3637;51.494;11.958;2022-07-29T00:15:08;2.13;;;1.60;;
7191;SDS011;3637;51.494;11.958;2022-07-29T00:18:09;1.60;;;1.50;;
7191;SDS011;3637;51.494;11.958;2022-07-29T00:21:11;1.43;;;1.23;;
7191;SDS011;3637;51.494;11.958;2022-07-29T00:24:13;1.60;;;1.50;;
7191;SDS011;3637;51.494;11.958;2022-07-29T00:27:17;1.50;;;1.33;;
7191;SDS011;3637;51.494;11.958;2022-07-29T00:30:19;4.37;;;1.83;;
7191;SDS011;3637;51.494;11.958;2022-07-29T00:33:21;1.40;;;1.30;;
7191;SDS011;3637;51.494;11.958;2022-07-29T00:36:23;1.60;;;1.50;;
7191;SDS011;3637;51.494;11.958;2022-07-29T00:39:24;2.77;;;1.90;;
7191;SDS011;3637;51.494;11.958;2022-07-29T00:42:27;2.40;;;1.60;;
7191;SDS011;3637;51.494;11.958;2022-07-29T00:45:29;2.00;;;1.40;;
7191;SDS011;3637;51.494;11.958;2022-07-29T00:48:31;1.47;;;1.30;;
7191;SDS011;3637;51.494;11.958;2022-07-29T00:51:33;1.50;;;1.40;;
7191;SDS011;3637;51.494;11.958;2022-07-29T00:54:37;1.57;;;1.47;;
7191;SDS011;3637;51.494;11.958;2022-07-29T00:57:42;1.40;;;1.30;;
7191;SDS011;3637;51.494;11.958;2022-07-29T01:00:45;2.17;;;1.70;;
7191;SDS011;3637;51.494;11.958;2022-07-29T01:03:46;3.00;;;1.80;;
7191;SDS011;3637;51.494;11.958;2022-07-29T01:06:48;1.50;;;1.40;;
7191;SDS011;3637;51.494;11.958;2022-07-29T01:09:51;1.60;;;1.50;;
7191;SDS011;3637;51.494;11.958;2022-07-29T01:12:56;1.93;;;1.60;;
7191;SDS011;3637;51.494;11.958;2022-07-29T01:16:01;2.07;;;1.97;;
7191;SDS011;3637;51.494;11.958;2022-07-29T01:19:13;1.90;;;1.60;;
7191;SDS011;3637;51.494;11.958;2022-07-29T01:22:37;1.57;;;1.37;;
7191;SDS011;3637;51.494;11.958;2022-07-29T01:26:04;1.40;;;1.30;;
7191;SDS011;3637;51.494;11.958;2022-07-29T01:29:26;1.90;;;1.50;;
7191;SDS011;3637;51.494;11.958;2022-07-29T01:32:29;1.57;;;1.47;;
7191;SDS011;3637;51.494;11.958;2022-07-29T01:35:36;1.63;;;1.50;;
7191;SDS011;3637;51.494;11.958;2022-07-29T01:38:41;1.70;;;1.60;;
7191;SDS011;3637;51.494;11.958;2022-07-29T01:41:48;1.70;;;1.60;;
7191;SDS011;3637;51.494;11.958;2022-07-29T01:44:59;1.40;;;1.30;;
7191;SDS011;3637;51.494;11.958;2022-07-29T01:48:10;2.30;;;1.47;;
7191;SDS011;3637;51.494;11.958;2022-07-29T01:51:16;2.40;;;1.90;;
7191;SDS011;3637;51.494;11.958;2022-07-29T01:54:24;1.50;;;1.40;;
7191;SDS011;3637;51.494;11.958;2022-07-29T01:57:30;1.60;;;1.50;;
7191;SDS011;3637;51.494;11.958;2022-07-29T02:00:36;2.37;;;1.70;;
7191;SDS011;3637;51.494;11.958;2022-07-29T02:03:40;1.97;;;1.57;;
7191;SDS011;3637;51.494;11.958;2022-07-29T02:06:44;4.73;;;1.77;;
7191;SDS011;3637;51.494;11.958;2022-07-29T02:09:49;1.70;;;1.60;;
7191;SDS011;3637;51.494;11.958;2022-07-29T02:12:52;1.77;;;1.67;;
7191;SDS011;3637;51.494;11.958;2022-07-29T02:15:58;1.70;;;1.60;;
7191;SDS011;3637;51.494;11.958;2022-07-29T02:19:04;2.63;;;1.63;;
7191;SDS011;3637;51.494;11.958;2022-07-29T02:22:08;1.60;;;1.50;;
7191;SDS011;3637;51.494;11.958;2022-07-29T02:25:11;2.97;;;1.53;;
7191;SDS011;3637;51.494;11.958;2022-07-29T02:28:15;1.70;;;1.60;;
7191;SDS011;3637;51.494;11.958;2022-07-29T02:31:21;2.00;;;1.80;;
7191;SDS011;3637;51.494;11.958;2022-07-29T02:34:26;1.70;;;1.60;;
7191;SDS011;3637;51.494;11.958;2022-07-29T02:37:29;2.70;;;1.67;;
7191;SDS011;3637;51.494;11.958;2022-07-29T02:40:33;1.60;;;1.50;;
7191;SDS011;3637;51.494;11.958;2022-07-29T02:43:38;2.00;;;1.73;;
7191;SDS011;3637;51.494;11.958;2022-07-29T02:46:45;2.37;;;1.60;;
7191;SDS011;3637;51.494;11.958;2022-07-29T02:49:52;1.93;;;1.70;;
7191;SDS011;3637;51.494;11.958;2022-07-29T02:52:58;1.60;;;1.50;;
7191;SDS011;3637;51.494;11.958;2022-07-29T02:56:04;1.70;;;1.60;;
7191;SDS011;3637;51.494;11.958;2022-07-29T02:59:10;2.57;;;1.63;;
7191;SDS011;3637;51.494;11.958;2022-07-29T03:02:16;1.70;;;1.60;;
7191;SDS011;3637;51.494;11.958;2022-07-29T03:05:19;2.00;;;1.63;;
7191;SDS011;3637;51.494;11.958;2022-07-29T03:08:22;2.73;;;1.77;;
7191;SDS011;3637;51.494;11.958;2022-07-29T03:11:25;1.67;;;1.57;;
7191;SDS011;3637;51.494;11.958;2022-07-29T03:14:28;2.70;;;1.70;;
7191;SDS011;3637;51.494;11.958;2022-07-29T03:17:32;2.17;;;1.60;;
7191;SDS011;3637;51.494;11.958;2022-07-29T03:20:34;1.97;;;1.60;;
7191;SDS011;3637;51.494;11.958;2022-07-29T03:23:36;1.70;;;1.60;;
7191;SDS011;3637;51.494;11.958;2022-07-29T03:26:38;1.80;;;1.70;;
7191;SDS011;3637;51.494;11.958;2022-07-29T03:29:40;2.93;;;1.70;;
7191;SDS011;3637;51.494;11.958;2022-07-29T03:32:43;1.60;;;1.50;;
7191;SDS011;3637;51.494;11.958;2022-07-29T03:35:45;1.90;;;1.70;;
7191;SDS011;3637;51.494;11.958;2022-07-29T03:38:47;2.27;;;1.90;;
7191;SDS011;3637;51.494;11.958;2022-07-29T03:41:52;1.60;;;1.50;;
7191;SDS011;3637;51.494;11.958;2022-07-29T03:44:56;1.60;;;1.50;;
7191;SDS011;3637;51.494;11.958;2022-07-29T03:48:02;2.60;;;1.90;;
7191;SDS011;3637;51.494;11.958;2022-07-29T03:51:09;2.20;;;1.87;;
7191;SDS011;3637;51.494;11.958;2022-07-29T03:54:11;1.93;;;1.70;;
7191;SDS011;3637;51.494;11.958;2022-07-29T03:57:14;3.10;;;1.70;;
7191;SDS011;3637;51.494;11.958;2022-07-29T04:00:19;1.83;;;1.73;;
7191;SDS011;3637;51.494;11.958;2022-07-29T04:03:23;2.37;;;1.80;;
7191;SDS011;3637;51.494;11.958;2022-07-29T04:06:25;2.00;;;1.90;;
7191;SDS011;3637;51.494;11.958;2022-07-29T04:09:26;2.23;;;1.60;;
7191;SDS011;3637;51.494;11.958;2022-07-29T04:12:28;2.03;;;1.87;;
7191;SDS011;3637;51.494;11.958;2022-07-29T04:15:30;2.10;;;1.90;;
7191;SDS011;3637;51.494;11.958;2022-07-29T04:18:33;2.20;;;1.73;;
7191;SDS011;3637;51.494;11.958;2022-07-29T04:21:36;1.87;;;1.63;;
7191;SDS011;3637;51.494;11.958;2022-07-29T04:24:39;4.20;;;1.83;;
7191;SDS011;3637;51.494;11.958;2022-07-29T04:27:41;4.10;;;1.73;;
7191;SDS011;3637;51.494;11.958;2022-07-29T04:30:56;2.37;;;1.90;;
7191;SDS011;3637;51.494;11.958;2022-07-29T04:34:00;1.80;;;1.70;;
7191;SDS011;3637;51.494;11.958;2022-07-29T04:37:02;2.73;;;1.77;;
7191;SDS011;3637;51.494;11.958;2022-07-29T04:40:04;3.70;;;1.97;;
7191;SDS011;3637;51.494;11.958;2022-07-29T04:43:07;1.90;;;1.77;;
7191;SDS011;3637;51.494;11.958;2022-07-29T04:46:09;2.40;;;1.80;;
7191;SDS011;3637;51.494;11.958;2022-07-29T04:49:12;4.13;;;2.00;;
7191;SDS011;3637;51.494;11.958;2022-07-29T04:52:14;1.97;;;1.77;;
7191;SDS011;3637;51.494;11.958;2022-07-29T04:55:16;2.03;;;1.80;;
7191;SDS011;3637;51.494;11.958;2022-07-29T04:58:18;2.50;;;1.90;;
7191;SDS011;3637;51.494;11.958;2022-07-29T05:01:19;2.27;;;1.87;;
7191;SDS011;3637;51.494;11.958;2022-07-29T05:04:23;2.30;;;2.10;;
7191;SDS011;3637;51.494;11.958;2022-07-29T05:07:24;1.80;;;1.70;;
7191;SDS011;3637;51.494;11.958;2022-07-29T05:10:26;2.00;;;1.77;;
7191;SDS011;3637;51.494;11.958;2022-07-29T05:13:28;1.70;;;1.60;;
7191;SDS011;3637;51.494;11.958;2022-07-29T05:16:30;2.27;;;1.90;;
7191;SDS011;3637;51.494;11.958;2022-07-29T05:19:34;3.10;;;1.73;;
7191;SDS011;3637;51.494;11.958;2022-07-29T05:22:36;7.23;;;2.70;;
7191;SDS011;3637;51.494;11.958;2022-07-29T05:25:38;2.23;;;2.03;;
7191;SDS011;3637;51.494;11.958;2022-07-29T05:28:40;1.90;;;1.80;;
7191;SDS011;3637;51.494;11.958;2022-07-29T05:31:45;2.53;;;1.93;;
7191;SDS011;3637;51.494;11.958;2022-07-29T05:34:48;1.83;;;1.63;;
7191;SDS011;3637;51.494;11.958;2022-07-29T05:37:50;1.70;;;1.60;;
7191;SDS011;3637;51.494;11.958;2022-07-29T05:40:52;2.00;;;1.90;;
7191;SDS011;3637;51.494;11.958;2022-07-29T05:43:53;2.13;;;1.90;;
7191;SDS011;3637;51.494;11.958;2022-07-29T05:46:55;1.93;;;1.73;;
7191;SDS011;3637;51.494;11.958;2022-07-29T05:50:00;5.10;;;2.10;;
7191;SDS011;3637;51.494;11.958;2022-07-29T05:53:02;2.10;;;1.90;;
7191;SDS011;3637;51.494;11.958;2022-07-29T05:56:04;8.10;;;2.10;;
7191;SDS011;3637;51.494;11.958;2022-07-29T05:59:06;4.47;;;2.63;;
7191;SDS011;3637;51.494;11.958;2022-07-29T06:02:08;2.63;;;1.70;;
7191;SDS011;3637;51.494;11.958;2022-07-29T06:05:11;3.07;;;1.60;;
7191;SDS011;3637;51.494;11.958;2022-07-29T06:08:15;2.57;;;1.60;;
7191;SDS011;3637;51.494;11.958;2022-07-29T06:11:17;1.90;;;1.70;;
7191;SDS011;3637;51.494;11.958;2022-07-29T06:14:19;2.03;;;1.70;;
7191;SDS011;3637;51.494;11.958;2022-07-29T06:17:21;2.27;;;1.80;;
7191;SDS011;3637;51.494;11.958;2022-07-29T06:20:24;2.60;;;1.90;;
7191;SDS011;3637;51.494;11.958;2022-07-29T06:23:26;6.47;;;1.80;;
7191;SDS011;3637;51.494;11.958;2022-07-29T06:26:28;2.30;;;2.03;;
7191;SDS011;3637;51.494;11.958;2022-07-29T06:29:30;2.03;;;1.80;;
7191;SDS011;3637;51.494;11.958;2022-07-29T06:32:32;2.00;;;1.63;;
7191;SDS011;3637;51.494;11.958;2022-07-29T06:35:35;1.93;;;1.77;;
7191;SDS011;3637;51.494;11.958;2022-07-29T06:38:39;2.30;;;2.00;;
7191;SDS011;3637;51.494;11.958;2022-07-29T06:41:40;2.50;;;2.20;;
7191;SDS011;3637;51.494;11.958;2022-07-29T06:44:42;3.47;;;1.70;;
7191;SDS011;3637;51.494;11.958;2022-07-29T06:47:44;3.00;;;2.00;;
7191;SDS011;3637;51.494;11.958;2022-07-29T06:50:47;2.30;;;1.80;;
7191;SDS011;3637;51.494;11.958;2022-07-29T06:53:50;2.10;;;1.90;;
7191;SDS011;3637;51.494;11.958;2022-07-29T06:56:52;2.27;;;1.70;;
7191;SDS011;3637;51.494;11.958;2022-07-29T06:59:55;3.13;;;1.70;;
7191;SDS011;3637;51.494;11.958;2022-07-29T07:02:57;1.90;;;1.77;;
7191;SDS011;3637;51.494;11.958;2022-07-29T07:06:00;1.80;;;1.70;;
7191;SDS011;3637;51.494;11.958;2022-07-29T07:09:03;2.03;;;1.83;;
7191;SDS011;3637;51.494;11.958;2022-07-29T07:12:05;4.23;;;1.90;;
7191;SDS011;3637;51.494;11.958;2022-07-29T07:15:08;3.63;;;2.33;;
7191;SDS011;3637;51.494;11.958;2022-07-29T07:18:10;1.97;;;1.70;;
7191;SDS011;3637;51.494;11.958;2022-07-29T07:21:14;2.20;;;1.67;;
7191;SDS011;3637;51.494;11.958;2022-07-29T07:24:15;1.97;;;1.70;;
7191;SDS011;3637;51.494;11.958;2022-07-29T07:27:26;3.27;;;2.03;;
7191;SDS011;3637;51.494;11.958;2022-07-29T07:30:30;5.83;;;1.50;;
7191;SDS011;3637;51.494;11.958;2022-07-29T07:33:32;6.90;;;1.80;;
7191;SDS011;3637;51.494;11.958;2022-07-29T07:36:35;2.90;;;2.07;;
7191;SDS011;3637;51.494;11.958;2022-07-29T07:39:37;3.60;;;1.90;;
7191;SDS011;3637;51.494;11.958;2022-07-29T07:42:39;2.10;;;1.80;;
7191;SDS011;3637;51.494;11.958;2022-07-29T07:45:41;1.97;;;1.77;;
7191;SDS011;3637;51.494;11.958;2022-07-29T07:48:43;5.27;;;2.80;;
7191;SDS011;3637;51.494;11.958;2022-07-29T07:51:46;2.40;;;1.90;;
7191;SDS011;3637;51.494;11.958;2022-07-29T07:54:48;2.37;;;2.10;;
7191;SDS011;3637;51.494;11.958;2022-07-29T07:57:50;2.80;;;2.10;;
7191;SDS011;3637;51.494;11.958;2022-07-29T08:00:52;2.67;;;2.47;;
7191;SDS011;3637;51.494;11.958;2022-07-29T08:03:53;2.40;;;2.10;;
7191;SDS011;3637;51.494;11.958;2022-07-29T08:06:57;3.43;;;2.40;;
7191;SDS011;3637;51.494;11.958;2022-07-29T08:09:59;3.57;;;2.50;;
7191;SDS011;3637;51.494;11.958;2022-07-29T08:13:01;3.20;;;2.70;;
7191;SDS011;3637;51.494;11.958;2022-07-29T08:16:04;3.13;;;2.60;;
7191;SDS011;3637;51.494;11.958;2022-07-29T08:19:12;4.77;;;3.17;;
7191;SDS011;3637;51.494;11.958;2022-07-29T08:22:15;3.27;;;2.90;;
7191;SDS011;3637;51.494;11.958;2022-07-29T08:25:17;4.83;;;3.10;;
7191;SDS011;3637;51.494;11.958;2022-07-29T08:28:20;3.40;;;2.37;;
7191;SDS011;3637;51.494;11.958;2022-07-29T08:31:22;3.13;;;2.37;;
7191;SDS011;3637;51.494;11.958;2022-07-29T08:34:24;3.60;;;2.60;;
7191;SDS011;3637;51.494;11.958;2022-07-29T08:37:28;3.40;;;2.47;;
7191;SDS011;3637;51.494;11.958;2022-07-29T08:40:30;3.10;;;2.50;;
7191;SDS011;3637;51.494;11.958;2022-07-29T08:43:32;4.37;;;2.70;;
7191;SDS011;3637;51.494;11.958;2022-07-29T08:46:37;4.10;;;2.50;;
7191;SDS011;3637;51.494;11.958;2022-07-29T08:49:39;4.30;;;2.87;;
7191;SDS011;3637;51.494;11.958;2022-07-29T08:52:43;3.33;;;2.70;;
7191;SDS011;3637;51.494;11.958;2022-07-29T08:55:45;2.63;;;2.43;;
7191;SDS011;3637;51.494;11.958;2022-07-29T08:58:49;3.23;;;2.50;;
7191;SDS011;3637;51.494;11.958;2022-07-29T09:01:51;2.60;;;2.40;;
7191;SDS011;3637;51.494;11.958;2022-07-29T09:04:55;3.83;;;2.40;;
7191;SDS011;3637;51.494;11.958;2022-07-29T09:08:03;2.43;;;2.23;;
7191;SDS011;3637;51.494;11.958;2022-07-29T09:11:06;4.43;;;2.60;;
7191;SDS011;3637;51.494;11.958;2022-07-29T09:14:08;3.33;;;2.40;;
7191;SDS011;3637;51.494;11.958;2022-07-29T09:17:15;3.37;;;2.70;;
7191;SDS011;3637;51.494;11.958;2022-07-29T09:20:19;3.20;;;2.50;;
7191;SDS011;3637;51.494;11.958;2022-07-29T09:23:24;2.87;;;2.50;;
7191;SDS011;3637;51.494;11.958;2022-07-29T09:26:27;2.70;;;2.50;;
7191;SDS011;3637;51.494;11.958;2022-07-29T09:29:30;2.30;;;2.10;;
7191;SDS011;3637;51.494;11.958;2022-07-29T09:32:32;3.63;;;2.33;;
7191;SDS011;3637;51.494;11.958;2022-07-29T09:35:34;2.40;;;2.00;;
7191;SDS011;3637;51.494;11.958;2022-07-29T09:38:37;4.17;;;2.40;;
7191;SDS011;3637;51.494;11.958;2022-07-29T09:41:46;2.60;;;2.17;;
7191;SDS011;3637;51.494;11.958;2022-07-29T09:44:49;2.57;;;2.07;;
7191;SDS011;3637;51.494;11.958;2022-07-29T09:47:51;2.40;;;2.20;;
7191;SDS011;3637;51.494;11.958;2022-07-29T09:50:54;2.27;;;2.07;;
7191;SDS011;3637;51.494;11.958;2022-07-29T09:53:59;2.43;;;2.20;;
7191;SDS011;3637;51.494;11.958;2022-07-29T09:57:04;2.90;;;1.97;;
7191;SDS011;3637;51.494;11.958;2022-07-29T10:00:08;2.67;;;2.47;;
7191;SDS011;3637;51.494;11.958;2022-07-29T10:03:11;6.87;;;4.50;;
7191;SDS011;3637;51.494;11.958;2022-07-29T10:06:13;6.17;;;3.57;;
7191;SDS011;3637;51.494;11.958;2022-07-29T10:09:16;6.73;;;4.03;;
7191;SDS011;3637;51.494;11.958;2022-07-29T10:12:18;4.77;;;3.80;;
7191;SDS011;3637;51.494;11.958;2022-07-29T10:15:21;3.00;;;2.67;;
7191;SDS011;3637;51.494;11.958;2022-07-29T10:18:24;7.17;;;3.90;;
7191;SDS011;3637;51.494;11.958;2022-07-29T10:21:26;5.57;;;4.23;;
7191;SDS011;3637;51.494;11.958;2022-07-29T10:24:30;4.47;;;3.73;;
7191;SDS011;3637;51.494;11.958;2022-07-29T10:27:32;5.53;;;4.00;;
7191;SDS011;3637;51.494;11.958;2022-07-29T10:30:36;7.90;;;4.63;;
7191;SDS011;3637;51.494;11.958;2022-07-29T10:33:43;4.90;;;3.40;;
7191;SDS011;3637;51.494;11.958;2022-07-29T10:36:54;5.37;;;3.97;;
7191;SDS011;3637;51.494;11.958;2022-07-29T10:40:09;5.80;;;3.40;;
7191;SDS011;3637;51.494;11.958;2022-07-29T10:43:35;2.77;;;2.57;;
7191;SDS011;3637;51.494;11.958;2022-07-29T10:46:40;3.30;;;2.50;;
7191;SDS011;3637;51.494;11.958;2022-07-29T10:49:49;4.17;;;3.20;;
7191;SDS011;3637;51.494;11.958;2022-07-29T10:52:58;4.13;;;2.67;;
7191;SDS011;3637;51.494;11.958;2022-07-29T10:56:01;4.00;;;2.70;;
7191;SDS011;3637;51.494;11.958;2022-07-29T10:59:22;2.83;;;2.40;;
7191;SDS011;3637;51.494;11.958;2022-07-29T11:02:41;3.30;;;2.33;;
7191;SDS011;3637;51.494;11.958;2022-07-29T11:05:51;2.70;;;2.50;;
7191;SDS011;3637;51.494;11.958;2022-07-29T11:15:54;2.13;;;1.93;;
7191;SDS011;3637;51.494;11.958;2022-07-29T11:22:31;5.63;;;2.20;;
7191;SDS011;3637;51.494;11.958;2022-07-29T11:25:33;2.77;;;2.20;;
7191;SDS011;3637;51.494;11.958;2022-07-29T11:28:37;3.07;;;2.20;;
7191;SDS011;3637;51.494;11.958;2022-07-29T11:31:51;2.60;;;2.40;;
7191;SDS011;3637;51.494;11.958;2022-07-29T11:35:12;2.43;;;2.20;;
7191;SDS011;3637;51.494;11.958;2022-07-29T11:38:25;2.30;;;2.10;;
7191;SDS011;3637;51.494;11.958;2022-07-29T11:41:27;2.30;;;2.10;;
7191;SDS011;3637;51.494;11.958;2022-07-29T11:47:58;2.37;;;2.17;;
7191;SDS011;3637;51.494;11.958;2022-07-29T11:51:00;2.53;;;2.03;;
7191;SDS011;3637;51.494;11.958;2022-07-29T11:54:11;2.73;;;2.33;;
7191;SDS011;3637;51.494;11.958;2022-07-29T11:57:18;3.43;;;2.30;;
7191;SDS011;3637;51.494;11.958;2022-07-29T12:00:26;2.00;;;1.90;;
7191;SDS011;3637;51.494;11.958;2022-07-29T12:03:30;2.30;;;2.10;;
7191;SDS011;3637;51.494;11.958;2022-07-29T12:06:32;4.50;;;2.40;;
7191;SDS011;3637;51.494;11.958;2022-07-29T12:09:34;2.97;;;2.20;;
7191;SDS011;3637;51.494;11.958;2022-07-29T12:12:37;2.53;;;2.30;;
7191;SDS011;3637;51.494;11.958;2022-07-29T12:15:41;2.20;;;2.00;;
7191;SDS011;3637;51.494;11.958;2022-07-29T12:18:54;2.30;;;2.10;;
7191;SDS011;3637;51.494;11.958;2022-07-29T12:21:56;2.90;;;2.20;;
7191;SDS011;3637;51.494;11.958;2022-07-29T12:25:00;2.67;;;2.20;;
7191;SDS011;3637;51.494;11.958;2022-07-29T12:28:04;2.27;;;2.07;;
7191;SDS011;3637;51.494;11.958;2022-07-29T12:31:12;2.40;;;2.20;;
7191;SDS011;3637;51.494;11.958;2022-07-29T12:34:15;2.30;;;2.10;;
7191;SDS011;3637;51.494;11.958;2022-07-29T12:37:17;2.27;;;2.07;;
7191;SDS011;3637;51.494;11.958;2022-07-29T12:40:20;2.47;;;2.20;;
7191;SDS011;3637;51.494;11.958;2022-07-29T12:43:23;3.40;;;2.43;;
7191;SDS011;3637;51.494;11.958;2022-07-29T12:46:27;2.40;;;2.20;;
7191;SDS011;3637;51.494;11.958;2022-07-29T12:49:29;3.57;;;2.20;;
7191;SDS011;3637;51.494;11.958;2022-07-29T12:52:31;5.30;;;2.60;;
7191;SDS011;3637;51.494;11.958;2022-07-29T12:55:38;2.57;;;2.30;;
7191;SDS011;3637;51.494;11.958;2022-07-29T12:58:41;2.40;;;2.20;;
7191;SDS011;3637;51.494;11.958;2022-07-29T13:01:45;2.40;;;2.10;;
7191;SDS011;3637;51.494;11.958;2022-07-29T13:04:55;3.47;;;2.40;;
7191;SDS011;3637;51.494;11.958;2022-07-29T13:08:08;2.50;;;2.30;;
7191;SDS011;3637;51.494;11.958;2022-07-29T13:14:29;2.27;;;2.07;;
7191;SDS011;3637;51.494;11.958;2022-07-29T13:17:33;2.83;;;1.90;;
7191;SDS011;3637;51.494;11.958;2022-07-29T13:20:42;2.17;;;1.97;;
7191;SDS011;3637;51.494;11.958;2022-07-29T13:23:44;2.93;;;2.40;;
7191;SDS011;3637;51.494;11.958;2022-07-29T13:26:46;2.40;;;2.20;;
7191;SDS011;3637;51.494;11.958;2022-07-29T13:29:48;2.37;;;2.17;;
7191;SDS011;3637;51.494;11.958;2022-07-29T13:32:52;2.37;;;2.17;;
7191;SDS011;3637;51.494;11.958;2022-07-29T13:35:55;2.30;;;2.10;;
7191;SDS011;3637;51.494;11.958;2022-07-29T13:38:57;2.97;;;2.30;;
7191;SDS011;3637;51.494;11.958;2022-07-29T13:41:59;2.50;;;2.30;;
7191;SDS011;3637;51.494;11.958;2022-07-29T13:45:01;2.70;;;2.30;;
7191;SDS011;3637;51.494;11.958;2022-07-29T13:48:05;2.77;;;2.33;;
7191;SDS011;3637;51.494;11.958;2022-07-29T13:51:07;2.30;;;2.10;;
7191;SDS011;3637;51.494;11.958;2022-07-29T13:54:09;2.67;;;2.47;;
7191;SDS011;3637;51.494;11.958;2022-07-29T13:57:11;4.57;;;2.60;;
7191;SDS011;3637;51.494;11.958;2022-07-29T14:00:14;2.70;;;2.23;;
7191;SDS011;3637;51.494;11.958;2022-07-29T14:03:18;2.47;;;2.03;;
7191;SDS011;3637;51.494;11.958;2022-07-29T14:06:19;2.87;;;2.30;;
7191;SDS011;3637;51.494;11.958;2022-07-29T14:09:21;2.30;;;2.10;;
7191;SDS011;3637;51.494;11.958;2022-07-29T14:12:23;2.33;;;2.17;;
7191;SDS011;3637;51.494;11.958;2022-07-29T14:15:25;2.77;;;2.57;;
7191;SDS011;3637;51.494;11.958;2022-07-29T14:18:28;2.67;;;2.47;;
7191;SDS011;3637;51.494;11.958;2022-07-29T14:21:30;2.27;;;2.07;;
7191;SDS011;3637;51.494;11.958;2022-07-29T14:24:34;3.57;;;2.20;;
7191;SDS011;3637;51.494;11.958;2022-07-29T14:27:36;3.70;;;2.40;;
7191;SDS011;3637;51.494;11.958;2022-07-29T14:30:38;2.63;;;2.40;;
7191;SDS011;3637;51.494;11.958;2022-07-29T14:33:41;2.47;;;2.27;;
7191;SDS011;3637;51.494;11.958;2022-07-29T14:36:43;3.50;;;2.37;;
7191;SDS011;3637;51.494;11.958;2022-07-29T14:39:45;4.00;;;2.23;;
7191;SDS011;3637;51.494;11.958;2022-07-29T14:42:47;3.07;;;2.77;;
7191;SDS011;3637;51.494;11.958;2022-07-29T14:45:49;2.80;;;2.50;;
7191;SDS011;3637;51.494;11.958;2022-07-29T14:48:52;2.97;;;2.40;;
7191;SDS011;3637;51.494;11.958;2022-07-29T14:51:55;3.80;;;2.50;;
7191;SDS011;3637;51.494;11.958;2022-07-29T14:54:57;2.57;;;2.37;;
7191;SDS011;3637;51.494;11.958;2022-07-29T14:57:59;2.37;;;2.17;;
7191;SDS011;3637;51.494;11.958;2022-07-29T15:01:01;3.10;;;2.53;;
7191;SDS011;3637;51.494;11.958;2022-07-29T15:04:05;2.43;;;2.23;;
7191;SDS011;3637;51.494;11.958;2022-07-29T15:07:07;3.03;;;2.37;;
7191;SDS011;3637;51.494;11.958;2022-07-29T15:10:09;2.93;;;2.60;;
7191;SDS011;3637;51.494;11.958;2022-07-29T15:13:11;2.87;;;2.40;;
7191;SDS011;3637;51.494;11.958;2022-07-29T15:16:13;3.13;;;2.57;;
7191;SDS011;3637;51.494;11.958;2022-07-29T15:19:16;2.50;;;2.17;;
7191;SDS011;3637;51.494;11.958;2022-07-29T15:22:18;2.20;;;2.00;;
7191;SDS011;3637;51.494;11.958;2022-07-29T15:25:20;2.60;;;2.40;;
7191;SDS011;3637;51.494;11.958;2022-07-29T15:28:22;3.10;;;2.40;;
7191;SDS011;3637;51.494;11.958;2022-07-29T15:31:24;2.90;;;2.40;;
7191;SDS011;3637;51.494;11.958;2022-07-29T15:34:27;2.80;;;2.30;;
7191;SDS011;3637;51.494;11.958;2022-07-29T15:37:29;2.80;;;2.50;;
7191;SDS011;3637;51.494;11.958;2022-07-29T15:40:33;2.60;;;2.40;;
7191;SDS011;3637;51.494;11.958;2022-07-29T15:43:37;2.80;;;2.50;;
7191;SDS011;3637;51.494;11.958;2022-07-29T15:46:40;2.60;;;2.40;;
7191;SDS011;3637;51.494;11.958;2022-07-29T15:50:01;2.73;;;2.53;;
7191;SDS011;3637;51.494;11.958;2022-07-29T15:53:03;2.40;;;2.20;;
7191;SDS011;3637;51.494;11.958;2022-07-29T15:56:04;3.17;;;2.43;;
7191;SDS011;3637;51.494;11.958;2022-07-29T15:59:06;2.90;;;2.27;;
7191;SDS011;3637;51.494;11.958;2022-07-29T16:02:08;2.63;;;2.43;;
7191;SDS011;3637;51.494;11.958;2022-07-29T16:05:12;2.67;;;2.47;;
7191;SDS011;3637;51.494;11.958;2022-07-29T16:08:13;3.00;;;2.43;;
7191;SDS011;3637;51.494;11.958;2022-07-29T16:11:15;2.77;;;2.43;;
7191;SDS011;3637;51.494;11.958;2022-07-29T16:14:17;2.47;;;2.20;;
7191;SDS011;3637;51.494;11.958;2022-07-29T16:17:19;2.70;;;2.47;;
7191;SDS011;3637;51.494;11.958;2022-07-29T16:20:23;2.90;;;2.40;;
7191;SDS011;3637;51.494;11.958;2022-07-29T16:23:25;2.50;;;2.30;;
7191;SDS011;3637;51.494;11.958;2022-07-29T16:26:27;2.73;;;2.30;;
7191;SDS011;3637;51.494;11.958;2022-07-29T16:29:29;2.50;;;2.30;;
7191;SDS011;3637;51.494;11.958;2022-07-29T16:32:30;2.60;;;2.40;;
7191;SDS011;3637;51.494;11.958;2022-07-29T16:35:34;2.53;;;2.33;;
7191;SDS011;3637;51.494;11.958;2022-07-29T16:38:38;2.60;;;2.40;;
7191;SDS011;3637;51.494;11.958;2022-07-29T16:41:40;2.70;;;2.43;;
7191;SDS011;3637;51.494;11.958;2022-07-29T16:44:42;3.07;;;2.53;;
7191;SDS011;3637;51.494;11.958;2022-07-29T16:47:44;2.53;;;2.33;;
7191;SDS011;3637;51.494;11.958;2022-07-29T16:50:48;2.47;;;2.27;;
7191;SDS011;3637;51.494;11.958;2022-07-29T16:53:49;2.83;;;2.60;;
7191;SDS011;3637;51.494;11.958;2022-07-29T16:56:51;2.60;;;2.40;;
7191;SDS011;3637;51.494;11.958;2022-07-29T16:59:53;3.67;;;2.50;;
7191;SDS011;3637;51.494;11.958;2022-07-29T17:02:55;2.70;;;2.50;;
7191;SDS011;3637;51.494;11.958;2022-07-29T17:06:00;2.93;;;2.70;;
7191;SDS011;3637;51.494;11.958;2022-07-29T17:09:02;3.53;;;2.70;;
7191;SDS011;3637;51.494;11.958;2022-07-29T17:12:04;3.80;;;2.80;;
7191;SDS011;3637;51.494;11.958;2022-07-29T17:15:07;3.20;;;2.70;;
7191;SDS011;3637;51.494;11.958;2022-07-29T17:18:11;3.10;;;2.90;;
7191;SDS011;3637;51.494;11.958;2022-07-29T17:21:14;3.27;;;2.97;;
7191;SDS011;3637;51.494;11.958;2022-07-29T17:24:16;3.27;;;2.80;;
7191;SDS011;3637;51.494;11.958;2022-07-29T17:27:18;5.83;;;3.23;;
7191;SDS011;3637;51.494;11.958;2022-07-29T17:30:20;4.23;;;2.77;;
7191;SDS011;3637;51.494;11.958;2022-07-29T17:33:22;4.27;;;3.00;;
7191;SDS011;3637;51.494;11.958;2022-07-29T17:36:25;2.90;;;2.70;;
7191;SDS011;3637;51.494;11.958;2022-07-29T17:39:27;4.10;;;3.00;;
7191;SDS011;3637;51.494;11.958;2022-07-29T17:42:29;8.00;;;3.57;;
7191;SDS011;3637;51.494;11.958;2022-07-29T17:45:34;3.03;;;2.63;;
7191;SDS011;3637;51.494;11.958;2022-07-29T17:48:36;3.57;;;2.90;;
7191;SDS011;3637;51.494;11.958;2022-07-29T17:51:39;2.90;;;2.70;;
7191;SDS011;3637;51.494;11.958;2022-07-29T17:54:41;3.33;;;3.03;;
7191;SDS011;3637;51.494;11.958;2022-07-29T17:57:43;3.50;;;2.90;;
7191;SDS011;3637;51.494;11.958;2022-07-29T18:00:44;3.10;;;2.80;;
7191;SDS011;3637;51.494;11.958;2022-07-29T18:03:46;3.20;;;2.90;;
7191;SDS011;3637;51.494;11.958;2022-07-29T18:06:50;3.87;;;2.73;;
7191;SDS011;3637;51.494;11.958;2022-07-29T18:09:52;2.90;;;2.60;;
7191;SDS011;3637;51.494;11.958;2022-07-29T18:12:54;3.13;;;2.80;;
7191;SDS011;3637;51.494;11.958;2022-07-29T18:15:56;3.00;;;2.53;;
7191;SDS011;3637;51.494;11.958;2022-07-29T18:18:58;3.73;;;3.27;;
7191;SDS011;3637;51.494;11.958;2022-07-29T18:22:01;2.93;;;2.67;;
7191;SDS011;3637;51.494;11.958;2022-07-29T18:25:04;3.40;;;2.80;;
7191;SDS011;3637;51.494;11.958;2022-07-29T18:28:06;3.00;;;2.70;;
7191;SDS011;3637;51.494;11.958;2022-07-29T18:31:08;3.10;;;2.80;;
7191;SDS011;3637;51.494;11.958;2022-07-29T18:34:10;3.10;;;2.80;;
7191;SDS011;3637;51.494;11.958;2022-07-29T18:37:13;2.90;;;2.70;;
7191;SDS011;3637;51.494;11.958;2022-07-29T18:40:15;2.47;;;2.27;;
7191;SDS011;3637;51.494;11.958;2022-07-29T18:43:19;3.20;;;2.90;;
7191;SDS011;3637;51.494;11.958;2022-07-29T18:46:21;2.57;;;2.37;;
7191;SDS011;3637;51.494;11.958;2022-07-29T18:49:23;3.13;;;2.83;;
7191;SDS011;3637;51.494;11.958;2022-07-29T18:52:27;4.80;;;2.80;;
7191;SDS011;3637;51.494;11.958;2022-07-29T18:55:29;3.27;;;2.50;;
7191;SDS011;3637;51.494;11.958;2022-07-29T18:58:31;3.43;;;2.80;;
7191;SDS011;3637;51.494;11.958;2022-07-29T19:01:33;2.67;;;2.47;;